createdAt,value
2018-03-11T00:00:28.879Z,74.27
2018-03-11T00:02:56.514Z,73.08
2018-03-11T00:05:24.064Z,74.54
2018-03-11T00:07:51.643Z,73.58
2018-03-11T00:10:19.181Z,73.64
2018-03-11T00:12:46.764Z,71.81
2018-03-11T00:15:14.310Z,72.99
2018-03-11T00:17:41.826Z,73.97
2018-03-11T00:20:09.415Z,73.61
2018-03-11T00:22:36.947Z,73.95
2018-03-11T00:25:04.541Z,72.46
2018-03-11T00:27:32.131Z,74.26
2018-03-11T00:29:59.661Z,74.04
2018-03-11T00:32:27.251Z,73.38
2018-03-11T00:34:54.786Z,73.23
2018-03-11T00:37:22.400Z,74.45
2018-03-11T00:39:49.935Z,73.40
2018-03-11T00:42:17.630Z,74.35
2018-03-11T00:44:45.177Z,74.00
2018-03-11T00:47:12.844Z,72.47
2018-03-11T00:49:40.408Z,74.01
2018-03-11T00:52:08.010Z,74.37
2018-03-11T00:54:35.557Z,73.75
2018-03-11T00:57:03.154Z,74.63
2018-03-11T00:59:30.722Z,74.55
2018-03-11T01:01:58.321Z,73.35
2018-03-11T01:04:26.727Z,73.88
2018-03-11T01:06:54.347Z,74.63
2018-03-11T01:09:21.947Z,73.21
2018-03-11T01:11:49.540Z,74.34
2018-03-11T01:14:17.167Z,73.69
2018-03-11T01:16:44.750Z,74.43
2018-03-11T01:19:12.358Z,73.29
2018-03-11T01:21:40.146Z,73.73
2018-03-11T01:24:07.742Z,72.75
2018-03-11T01:26:35.332Z,73.72
2018-03-11T01:29:02.931Z,73.29
2018-03-11T01:31:30.542Z,73.20
2018-03-11T01:33:58.129Z,73.93
2018-03-11T01:36:25.752Z,72.63
2018-03-11T01:38:53.314Z,74.08
2018-03-11T01:41:20.888Z,74.03
2018-03-11T01:43:48.452Z,73.36
2018-03-11T01:46:15.983Z,73.65
2018-03-11T01:48:43.521Z,73.80
2018-03-11T01:51:11.074Z,73.35
2018-03-11T01:53:38.610Z,74.54
2018-03-11T01:56:06.202Z,73.98
2018-03-11T01:58:33.773Z,74.36
2018-03-11T02:01:01.417Z,74.20
2018-03-11T02:03:29.005Z,73.78
2018-03-11T02:05:56.584Z,73.32
2018-03-11T02:08:24.173Z,72.04
2018-03-11T02:10:51.781Z,72.15
2018-03-11T02:13:19.381Z,74.94
2018-03-11T02:15:46.920Z,72.63
2018-03-11T02:18:14.511Z,74.69
2018-03-11T02:20:42.051Z,74.25
2018-03-11T02:23:09.637Z,73.44
2018-03-11T02:25:37.226Z,73.15
2018-03-11T02:28:04.796Z,75.59
2018-03-11T02:30:32.509Z,73.49
2018-03-11T02:33:00.042Z,74.56
2018-03-11T02:35:27.620Z,74.90
2018-03-11T02:37:55.157Z,74.94
2018-03-11T02:40:22.756Z,72.85
2018-03-11T02:42:50.385Z,73.58
2018-03-11T02:45:18.043Z,74.32
2018-03-11T02:47:45.555Z,74.36
2018-03-11T02:50:13.139Z,73.74
2018-03-11T02:52:40.700Z,75.16
2018-03-11T02:55:08.363Z,74.22
2018-03-11T02:57:35.914Z,73.71
2018-03-11T03:00:05.068Z,74.06
2018-03-11T03:02:32.661Z,73.52
2018-03-11T03:05:00.224Z,73.48
2018-03-11T03:07:27.804Z,72.60
2018-03-11T03:09:55.382Z,73.92
2018-03-11T03:12:23.017Z,73.98
2018-03-11T03:14:50.577Z,73.78
2018-03-11T03:17:18.110Z,74.69
2018-03-11T03:19:45.691Z,74.35
2018-03-11T03:22:13.399Z,73.72
2018-03-11T03:24:40.966Z,74.61
2018-03-11T03:27:08.589Z,74.83
2018-03-11T03:29:36.176Z,73.96
2018-03-11T03:32:03.800Z,74.41
2018-03-11T03:34:31.331Z,74.11
2018-03-11T03:36:58.878Z,74.60
2018-03-11T03:39:26.462Z,73.94
2018-03-11T03:41:54.039Z,72.72
2018-03-11T03:44:21.786Z,72.49
2018-03-11T03:46:49.404Z,73.89
2018-03-11T03:49:16.981Z,74.06
2018-03-11T03:51:44.612Z,74.30
2018-03-11T03:54:12.202Z,74.15
2018-03-11T03:56:39.811Z,74.35
2018-03-11T03:59:07.392Z,74.25
2018-03-11T04:01:35.006Z,73.29
2018-03-11T04:04:02.614Z,74.33
2018-03-11T04:06:30.220Z,74.13
2018-03-11T04:08:57.794Z,74.39
2018-03-11T04:11:25.352Z,74.14
2018-03-11T04:13:52.893Z,73.63
2018-03-11T04:16:20.501Z,73.91
2018-03-11T04:18:48.063Z,73.86
2018-03-11T04:21:15.652Z,74.31
2018-03-11T04:23:43.280Z,73.41
2018-03-11T04:26:10.877Z,73.32
2018-03-11T04:28:38.444Z,74.60
2018-03-11T04:31:06.088Z,74.28
2018-03-11T04:33:33.674Z,74.23
2018-03-11T04:36:01.224Z,75.08
2018-03-11T04:38:28.786Z,74.32
2018-03-11T04:40:56.383Z,74.21
2018-03-11T04:43:23.930Z,72.96
2018-03-11T04:45:51.537Z,74.06
2018-03-11T04:48:19.099Z,72.94
2018-03-11T04:50:46.786Z,73.26
2018-03-11T04:53:14.350Z,73.11
2018-03-11T04:55:41.953Z,73.56
2018-03-11T04:58:09.592Z,74.02
2018-03-11T05:00:37.217Z,73.42
2018-03-11T05:03:04.829Z,73.68
2018-03-11T05:05:32.353Z,72.57
2018-03-11T05:07:59.969Z,70.80
2018-03-11T05:10:27.582Z,71.32
2018-03-11T05:12:55.126Z,71.75
2018-03-11T05:15:22.741Z,70.75
2018-03-11T05:17:50.321Z,70.79
2018-03-11T05:20:17.919Z,68.91
2018-03-11T05:22:45.526Z,68.63
2018-03-11T05:25:13.123Z,67.18
2018-03-11T05:27:40.696Z,62.97
2018-03-11T05:30:09.113Z,60.82
2018-03-11T05:32:36.634Z,62.29
2018-03-11T05:35:04.268Z,61.07
2018-03-11T05:37:31.834Z,60.16
2018-03-11T05:39:59.414Z,58.97
2018-03-11T05:42:26.956Z,57.99
2018-03-11T05:44:54.554Z,57.63
2018-03-11T05:47:22.127Z,54.64
2018-03-11T05:49:49.760Z,52.55
2018-03-11T05:52:17.353Z,50.96
2018-03-11T05:54:44.960Z,51.65
2018-03-11T05:57:12.512Z,49.01
2018-03-11T05:59:41.167Z,48.19
2018-03-11T06:02:08.845Z,48.06
2018-03-11T06:04:37.211Z,47.80
2018-03-11T06:07:04.778Z,43.88
2018-03-11T06:09:33.366Z,44.39
2018-03-11T06:12:00.907Z,44.19
2018-03-11T06:14:28.471Z,43.01
2018-03-11T06:16:56.049Z,41.16
2018-03-11T06:19:23.638Z,40.49
2018-03-11T06:21:51.183Z,40.10
2018-03-11T06:24:18.750Z,39.02
2018-03-11T06:26:46.314Z,38.61
2018-03-11T06:29:13.885Z,36.39
2018-03-11T06:31:41.505Z,35.63
2018-03-11T06:34:09.160Z,35.51
2018-03-11T06:36:37.097Z,32.91
2018-03-11T06:39:04.692Z,32.83
2018-03-11T06:41:32.241Z,30.37
2018-03-11T06:43:59.819Z,30.27
2018-03-11T06:46:27.454Z,29.07
2018-03-11T06:48:55.004Z,29.24
2018-03-11T06:51:22.651Z,29.16
2018-03-11T06:53:50.232Z,28.98
2018-03-11T06:56:17.798Z,27.76
2018-03-11T06:58:45.448Z,27.93
2018-03-11T07:01:13.066Z,26.48
2018-03-11T07:03:40.585Z,26.12
2018-03-11T07:06:08.224Z,24.96
2018-03-11T07:08:35.896Z,24.48
2018-03-11T07:11:03.444Z,25.43
2018-03-11T07:13:31.032Z,25.04
2018-03-11T07:15:58.648Z,24.01
2018-03-11T07:18:26.286Z,23.11
2018-03-11T07:20:53.841Z,22.94
2018-03-11T07:23:21.415Z,22.51
2018-03-11T07:25:48.945Z,24.45
2018-03-11T07:28:16.542Z,19.11
2018-03-11T07:30:44.375Z,18.62
2018-03-11T07:33:11.927Z,19.24
2018-03-11T07:35:39.523Z,19.35
2018-03-11T07:38:07.161Z,18.93
2018-03-11T07:40:34.747Z,18.61
2018-03-11T07:43:02.366Z,18.28
2018-03-11T07:45:29.984Z,18.34
2018-03-11T07:47:57.633Z,18.53
2018-03-11T07:50:25.352Z,18.37
2018-03-11T07:52:53.006Z,17.89
2018-03-11T07:55:20.585Z,17.58
2018-03-11T07:57:48.255Z,17.27
2018-03-11T08:00:18.801Z,18.08
2018-03-11T08:02:46.387Z,17.76
2018-03-11T08:05:28.202Z,17.36
2018-03-11T08:07:55.816Z,16.36
2018-03-11T08:10:27.648Z,16.36
2018-03-11T08:12:59.728Z,16.08
2018-03-11T08:15:27.352Z,15.54
2018-03-11T08:17:54.976Z,14.10
2018-03-11T08:20:22.611Z,15.02
2018-03-11T08:22:51.016Z,14.81
2018-03-11T08:25:18.638Z,14.29
2018-03-11T08:27:46.264Z,14.70
2018-03-11T08:30:13.899Z,14.37
2018-03-11T08:32:41.551Z,14.58
2018-03-11T08:35:09.128Z,14.71
2018-03-11T08:37:36.721Z,14.64
2018-03-11T08:40:04.302Z,14.09
2018-03-11T08:42:31.905Z,13.85
2018-03-11T08:44:59.521Z,14.55
2018-03-11T08:47:27.858Z,13.65
2018-03-11T08:49:55.438Z,13.47
2018-03-11T08:52:23.045Z,13.33
2018-03-11T08:54:50.678Z,13.25
2018-03-11T08:57:18.281Z,12.96
2018-03-11T08:59:45.950Z,12.36
2018-03-11T09:02:13.572Z,12.28
2018-03-11T09:04:41.228Z,12.26
2018-03-11T09:07:08.829Z,11.76
2018-03-11T09:09:36.473Z,11.60
2018-03-11T09:12:04.672Z,11.45
2018-03-11T09:14:32.292Z,11.06
2018-03-11T09:16:59.936Z,10.64
2018-03-11T09:19:28.260Z,10.72
2018-03-11T09:21:55.853Z,10.61
2018-03-11T09:24:23.475Z,10.28
2018-03-11T09:26:53.289Z,10.67
2018-03-11T09:29:20.858Z,11.31
2018-03-11T09:31:48.467Z,11.01
2018-03-11T09:34:16.020Z,11.68
2018-03-11T09:36:43.576Z,11.23
2018-03-11T09:39:11.194Z,12.31
2018-03-11T09:41:38.796Z,11.68
2018-03-11T09:44:06.382Z,11.68
2018-03-11T09:46:34.010Z,11.93
2018-03-11T09:49:02.412Z,12.32
2018-03-11T09:51:29.995Z,12.55
2018-03-11T09:53:57.581Z,12.59
2018-03-11T09:56:25.179Z,12.83
2018-03-11T09:58:52.745Z,12.36
2018-03-11T10:01:20.452Z,12.72
2018-03-11T10:03:48.042Z,12.97
2018-03-11T10:06:15.599Z,12.94
2018-03-11T10:08:43.441Z,12.45
2018-03-11T10:11:11.043Z,12.88
2018-03-11T10:13:38.603Z,12.42
2018-03-11T10:16:06.228Z,13.17
2018-03-11T10:18:33.846Z,12.62
2018-03-11T10:21:01.449Z,13.15
2018-03-11T10:23:29.027Z,11.38
2018-03-11T10:25:56.624Z,13.07
2018-03-11T10:28:24.247Z,11.97
2018-03-11T10:30:51.876Z,11.66
2018-03-11T10:33:19.439Z,12.19
2018-03-11T10:35:47.008Z,11.68
2018-03-11T10:38:14.724Z,11.83
2018-03-11T10:40:42.300Z,11.91
2018-03-11T10:43:09.867Z,10.68
2018-03-11T10:45:37.482Z,10.10
2018-03-11T10:48:05.002Z,7.13
2018-03-11T10:50:32.583Z,6.36
2018-03-11T10:53:00.208Z,5.43
2018-03-11T10:55:27.785Z,3.67
2018-03-11T10:57:55.377Z,4.03
2018-03-11T11:00:32.913Z,3.59
2018-03-11T11:03:06.136Z,3.07
2018-03-11T11:05:33.786Z,3.03
2018-03-11T11:08:01.405Z,2.68
2018-03-11T11:10:29.004Z,2.43
2018-03-11T11:12:56.687Z,1.69
2018-03-11T11:15:24.287Z,1.96
2018-03-11T11:17:51.887Z,1.90
2018-03-11T11:20:19.545Z,1.77
2018-03-11T11:22:47.146Z,1.91
2018-03-11T11:25:14.827Z,1.58
2018-03-11T11:27:42.513Z,1.58
2018-03-11T11:30:10.193Z,1.35
2018-03-11T11:32:37.782Z,2.31
2018-03-11T11:35:05.287Z,1.98
2018-03-11T11:37:34.040Z,2.18
2018-03-11T11:40:01.634Z,2.25
2018-03-11T11:42:29.218Z,2.28
2018-03-11T11:44:56.820Z,2.24
2018-03-11T11:47:24.381Z,2.51
2018-03-11T11:49:51.955Z,3.20
2018-03-11T11:52:19.555Z,4.55
2018-03-11T11:54:47.103Z,7.31
2018-03-11T11:57:14.697Z,10.05
2018-03-11T11:59:42.273Z,11.73
2018-03-11T12:02:10.798Z,13.37
2018-03-11T12:04:38.393Z,14.71
2018-03-11T12:07:06.028Z,15.93
2018-03-11T12:09:33.662Z,16.54
2018-03-11T12:12:01.231Z,16.65
2018-03-11T12:14:28.842Z,17.93
2018-03-11T12:16:56.450Z,17.92
2018-03-11T12:19:24.043Z,18.29
2018-03-11T12:21:51.618Z,19.31
2018-03-11T12:24:19.229Z,19.34
2018-03-11T12:26:46.846Z,19.24
2018-03-11T12:29:14.358Z,19.44
2018-03-11T12:31:42.297Z,20.20
2018-03-11T12:34:09.911Z,20.26
2018-03-11T12:36:37.488Z,20.00
2018-03-11T12:39:05.872Z,20.55
2018-03-11T12:41:33.386Z,19.66
2018-03-11T12:44:01.001Z,20.44
2018-03-11T12:46:29.513Z,20.13
2018-03-11T12:48:57.112Z,20.66
2018-03-11T12:51:24.764Z,20.83
2018-03-11T12:53:52.364Z,18.22
2018-03-11T12:56:19.982Z,20.26
2018-03-11T12:58:47.813Z,21.45
2018-03-11T13:01:15.432Z,22.45
2018-03-11T13:03:43.044Z,22.80
2018-03-11T13:06:10.656Z,20.79
2018-03-11T13:08:38.248Z,20.31
2018-03-11T13:11:05.806Z,21.25
2018-03-11T13:13:34.375Z,20.43
2018-03-11T13:16:01.960Z,23.05
2018-03-11T13:18:29.677Z,20.95
2018-03-11T13:21:11.258Z,20.83
2018-03-11T13:23:38.929Z,20.20
2018-03-11T13:26:06.508Z,20.61
2018-03-11T13:28:45.972Z,20.40
2018-03-11T13:31:13.540Z,20.75
2018-03-11T13:33:52.809Z,22.18
2018-03-11T13:36:20.647Z,22.62
2018-03-11T13:38:59.960Z,21.55
2018-03-11T13:41:27.660Z,21.34
2018-03-11T13:43:55.306Z,22.11
2018-03-11T13:46:34.645Z,21.39
2018-03-11T13:49:02.274Z,22.14
2018-03-11T13:51:41.622Z,21.87
2018-03-11T13:54:09.198Z,22.70
2018-03-11T13:56:36.774Z,24.19
2018-03-11T13:59:04.444Z,26.02
2018-03-11T14:01:32.084Z,24.68
2018-03-11T14:03:59.679Z,25.01
2018-03-11T14:06:27.291Z,24.46
2018-03-11T14:08:54.869Z,26.90
2018-03-11T14:11:22.420Z,25.29
2018-03-11T14:13:49.989Z,25.49
2018-03-11T14:16:22.602Z,23.56
2018-03-11T14:18:50.340Z,23.22
2018-03-11T14:21:17.894Z,23.32
2018-03-11T14:23:45.469Z,25.44
2018-03-11T14:26:13.021Z,24.05
2018-03-11T14:28:40.614Z,23.12
2018-03-11T14:31:08.350Z,26.19
2018-03-11T14:33:35.897Z,26.40
2018-03-11T14:36:03.804Z,26.46
2018-03-11T14:38:31.754Z,25.03
2018-03-11T14:40:59.316Z,24.38
2018-03-11T14:43:28.132Z,24.66
2018-03-11T14:45:56.196Z,24.37
2018-03-11T14:48:24.920Z,25.01
2018-03-11T14:50:52.521Z,24.79
2018-03-11T14:53:20.356Z,24.58
2018-03-11T14:55:47.983Z,24.65
2018-03-11T14:58:15.556Z,25.13
2018-03-11T15:00:43.115Z,25.45
2018-03-11T15:03:10.652Z,25.39
2018-03-11T15:05:38.313Z,25.20
2018-03-11T15:08:06.541Z,25.56
2018-03-11T15:10:34.158Z,25.61
2018-03-11T15:13:02.356Z,25.72
2018-03-11T15:15:30.034Z,25.93
2018-03-11T15:17:57.613Z,25.98
2018-03-11T15:20:25.202Z,26.25
2018-03-11T15:22:52.739Z,25.96
2018-03-11T15:25:20.412Z,26.31
2018-03-11T15:27:48.096Z,26.59
2018-03-11T15:30:15.681Z,26.36
2018-03-11T15:32:43.786Z,26.68
2018-03-11T15:35:11.471Z,26.82
2018-03-11T15:37:39.219Z,27.00
2018-03-11T15:40:07.129Z,27.36
2018-03-11T15:42:35.591Z,27.71
2018-03-11T15:45:03.304Z,27.28
2018-03-11T15:47:31.309Z,27.77
2018-03-11T15:49:59.305Z,28.13
2018-03-11T15:52:27.226Z,28.46
2018-03-11T15:54:55.503Z,28.75
2018-03-11T15:57:23.798Z,28.81
2018-03-11T15:59:51.382Z,29.00
2018-03-11T16:02:19.460Z,32.07
2018-03-11T16:04:47.245Z,31.78
2018-03-11T16:07:15.533Z,31.52
2018-03-11T16:09:43.668Z,31.02
2018-03-11T16:12:11.856Z,31.12
2018-03-11T16:14:41.414Z,30.86
2018-03-11T16:17:09.665Z,30.92
2018-03-11T16:19:37.272Z,31.26
2018-03-11T16:22:05.490Z,32.65
2018-03-11T16:24:39.617Z,30.69
2018-03-11T16:27:00.845Z,30.56
2018-03-11T16:29:28.519Z,29.94
2018-03-11T16:31:56.142Z,31.02
2018-03-11T16:34:23.733Z,31.18
2018-03-11T16:36:51.297Z,31.11
2018-03-11T16:39:19.624Z,30.68
2018-03-11T16:41:47.329Z,30.79
2018-03-11T16:44:15.308Z,31.48
2018-03-11T16:46:43.190Z,31.50
2018-03-11T16:49:11.482Z,31.64
2018-03-11T16:51:39.599Z,31.57
2018-03-11T16:54:07.604Z,31.53
2018-03-11T16:56:35.599Z,30.61
2018-03-11T16:59:04.000Z,31.70
2018-03-11T17:01:31.986Z,32.29
2018-03-11T17:03:59.730Z,31.36
2018-03-11T17:06:27.390Z,32.03
2018-03-11T17:08:55.399Z,32.00
2018-03-11T17:11:23.283Z,31.34
2018-03-11T17:13:51.265Z,31.59
2018-03-11T17:16:19.200Z,31.32
2018-03-11T17:18:47.260Z,31.84
2018-03-11T17:21:14.930Z,32.14
2018-03-11T17:23:42.946Z,32.34
2018-03-11T17:26:11.047Z,32.70
2018-03-11T17:28:38.674Z,32.94
2018-03-11T17:31:08.055Z,33.17
2018-03-11T17:33:35.844Z,33.50
2018-03-11T17:36:03.490Z,33.43
2018-03-11T17:38:32.014Z,33.71
2018-03-11T17:41:00.136Z,34.45
2018-03-11T17:43:27.827Z,34.58
2018-03-11T17:45:56.024Z,34.42
2018-03-11T17:48:24.072Z,34.71
2018-03-11T17:50:52.570Z,35.87
2018-03-11T17:53:20.654Z,34.95
2018-03-11T17:55:48.497Z,34.54
2018-03-11T17:58:16.749Z,34.91
2018-03-11T18:00:44.481Z,35.11
2018-03-11T18:03:12.174Z,35.38
2018-03-11T18:05:39.832Z,35.68
2018-03-11T18:08:07.565Z,36.63
2018-03-11T18:10:35.242Z,36.17
2018-03-11T18:13:03.206Z,37.11
2018-03-11T18:15:31.019Z,36.78
2018-03-11T18:17:59.178Z,37.87
2018-03-11T18:20:26.918Z,37.47
2018-03-11T18:22:55.970Z,37.29
2018-03-11T18:25:23.886Z,37.38
2018-03-11T18:27:51.687Z,37.84
2018-03-11T18:30:19.490Z,38.08
2018-03-11T18:32:47.649Z,38.24
2018-03-11T18:35:16.116Z,38.55
2018-03-11T18:37:44.357Z,38.72
2018-03-11T18:40:12.594Z,38.61
2018-03-11T18:42:41.038Z,38.43
2018-03-11T18:45:09.019Z,39.70
2018-03-11T18:47:36.780Z,39.01
2018-03-11T18:50:05.234Z,39.57
2018-03-11T18:52:33.708Z,39.77
2018-03-11T18:55:02.217Z,39.52
2018-03-11T18:57:31.024Z,39.61
2018-03-11T18:59:59.541Z,39.71
2018-03-11T19:02:28.126Z,40.31
2018-03-11T19:04:56.633Z,40.05
2018-03-11T19:07:24.388Z,40.05
2018-03-11T19:09:52.283Z,39.10
2018-03-11T19:12:20.549Z,39.33
2018-03-11T19:14:48.369Z,39.70
2018-03-11T19:17:16.856Z,39.64
2018-03-11T19:19:44.598Z,39.59
2018-03-11T19:22:12.282Z,40.58
2018-03-11T19:24:40.501Z,40.22
2018-03-11T19:27:08.072Z,39.94
2018-03-11T19:29:35.998Z,39.79
2018-03-11T19:32:03.892Z,39.94
2018-03-11T19:34:31.712Z,40.26
2018-03-11T19:36:59.464Z,40.65
2018-03-11T19:39:29.030Z,40.79
2018-03-11T19:41:56.794Z,41.92
2018-03-11T19:44:24.799Z,55.75
2018-03-11T19:46:52.624Z,55.86
2018-03-11T19:49:20.166Z,51.63
2018-03-11T19:51:47.817Z,51.63
2018-03-11T19:54:16.127Z,50.43
2018-03-11T19:56:44.146Z,48.52
2018-03-11T19:59:12.169Z,50.53
2018-03-11T20:01:39.900Z,51.94
2018-03-11T20:04:07.536Z,50.42
2018-03-11T20:06:35.665Z,49.69
2018-03-11T20:09:03.326Z,51.01
2018-03-11T20:11:31.019Z,49.11
2018-03-11T20:13:58.546Z,52.00
2018-03-11T20:16:26.107Z,52.76
2018-03-11T20:18:53.626Z,49.20
2018-03-11T20:21:21.910Z,51.51
2018-03-11T20:23:49.456Z,51.12
2018-03-11T20:26:17.013Z,52.52
2018-03-11T20:28:44.670Z,53.11
2018-03-11T20:31:12.298Z,53.43
2018-03-11T20:33:40.919Z,54.13
2018-03-11T20:36:09.027Z,54.47
2018-03-11T20:38:36.560Z,52.33
2018-03-11T20:41:04.142Z,55.04
2018-03-11T20:43:31.703Z,53.44
2018-03-11T20:45:59.276Z,50.47
2018-03-11T20:48:26.937Z,52.79
2018-03-11T20:50:54.488Z,54.31
2018-03-11T20:53:22.013Z,57.04
2018-03-11T20:55:49.539Z,54.16
2018-03-11T20:58:17.127Z,55.85
2018-03-11T21:00:44.796Z,55.07
2018-03-11T21:03:12.390Z,53.92
2018-03-11T21:05:39.908Z,56.49
2018-03-11T21:08:07.468Z,55.20
2018-03-11T21:10:35.282Z,56.63
2018-03-11T21:13:02.849Z,58.54
2018-03-11T21:15:30.376Z,57.58
2018-03-11T21:17:57.900Z,57.67
2018-03-11T21:20:25.417Z,57.38
2018-03-11T21:22:52.942Z,59.51
2018-03-11T21:25:20.692Z,56.33
2018-03-11T21:27:48.240Z,55.59
2018-03-11T21:30:30.714Z,57.03
2018-03-11T21:32:58.261Z,58.19
2018-03-11T21:35:25.835Z,59.21
2018-03-11T21:37:53.364Z,57.81
2018-03-11T21:40:20.876Z,57.43
2018-03-11T21:42:48.406Z,58.97
2018-03-11T21:45:15.985Z,58.94
2018-03-11T21:47:43.548Z,59.70
2018-03-11T21:50:11.201Z,65.98
2018-03-11T21:52:38.716Z,59.39
2018-03-11T21:55:06.243Z,63.45
2018-03-11T21:57:33.777Z,64.73
2018-03-11T22:00:01.367Z,65.31
2018-03-11T22:02:28.907Z,63.12
2018-03-11T22:04:56.523Z,63.06
2018-03-11T22:07:24.085Z,62.05
2018-03-11T22:09:51.638Z,63.39
2018-03-11T22:12:19.173Z,64.67
2018-03-11T22:14:46.708Z,65.55
2018-03-11T22:17:14.224Z,62.69
2018-03-11T22:19:41.780Z,65.71
2018-03-11T22:22:09.308Z,64.27
2018-03-11T22:24:37.780Z,64.57
2018-03-11T22:27:05.319Z,63.87
2018-03-11T22:29:32.863Z,62.68
2018-03-11T22:32:00.377Z,63.94
2018-03-11T22:34:27.916Z,64.17
2018-03-11T22:36:55.496Z,65.45
2018-03-11T22:39:23.024Z,63.78
2018-03-11T22:41:50.560Z,65.69
2018-03-11T22:44:18.104Z,63.53
2018-03-11T22:46:45.650Z,66.49
2018-03-11T22:49:13.209Z,67.13
2018-03-11T22:51:40.757Z,64.58
2018-03-11T22:54:08.328Z,65.27
2018-03-11T22:56:35.900Z,63.39
2018-03-11T22:59:03.438Z,65.45
2018-03-11T23:01:30.960Z,66.34
2018-03-11T23:03:58.508Z,64.07
2018-03-11T23:06:26.091Z,64.99
2018-03-11T23:08:53.646Z,65.86
2018-03-11T23:11:21.178Z,65.23
2018-03-11T23:13:48.687Z,65.34
2018-03-11T23:16:16.241Z,65.04
2018-03-11T23:18:55.564Z,64.33
2018-03-11T23:21:23.128Z,65.85
2018-03-11T23:23:50.660Z,65.82
2018-03-11T23:26:18.193Z,65.30
2018-03-11T23:28:45.739Z,65.15
2018-03-11T23:31:13.328Z,67.30
2018-03-11T23:33:40.892Z,64.54
2018-03-11T23:36:08.426Z,63.40
2018-03-11T23:38:35.933Z,67.56
2018-03-11T23:41:03.564Z,64.47
2018-03-11T23:43:31.120Z,65.66
2018-03-11T23:45:58.701Z,62.51
2018-03-11T23:48:26.261Z,66.56
2018-03-11T23:50:53.780Z,67.79
2018-03-11T23:53:21.304Z,65.15
2018-03-11T23:55:49.064Z,65.13
2018-03-11T23:58:16.635Z,65.71
